sensor_id;sensor_type;location;lat;lon;timestamp;temperature;humidity
16781;DHT22;8507;50.056;8.248;2022-07-04T00:00:28;19.00;99.90
16781;DHT22;8507;50.056;8.248;2022-07-04T00:02:55;18.90;99.90
16781;DHT22;8507;50.056;8.248;2022-07-04T00:05:21;19.10;99.90
16781;DHT22;8507;50.056;8.248;2022-07-04T00:07:48;19.00;99.90
16781;DHT22;8507;50.056;8.248;2022-07-04T00:10:16;18.90;99.90
16781;DHT22;8507;50.056;8.248;2022-07-04T00:12:43;19.00;99.90
16781;DHT22;8507;50.056;8.248;2022-07-04T00:15:10;18.90;99.90
16781;DHT22;8507;50.056;8.248;2022-07-04T00:17:36;18.90;99.90
16781;DHT22;8507;50.056;8.248;2022-07-04T00:20:02;18.80;99.90
16781;DHT22;8507;50.056;8.248;2022-07-04T00:22:28;18.80;99.90
16781;DHT22;8507;50.056;8.248;2022-07-04T00:24:54;18.90;99.90
16781;DHT22;8507;50.056;8.248;2022-07-04T00:27:20;19.00;99.90
16781;DHT22;8507;50.056;8.248;2022-07-04T00:29:45;18.90;99.90
16781;DHT22;8507;50.056;8.248;2022-07-04T00:32:11;18.80;99.90
16781;DHT22;8507;50.056;8.248;2022-07-04T00:34:36;18.90;99.90
16781;DHT22;8507;50.056;8.248;2022-07-04T00:37:02;18.90;99.90
16781;DHT22;8507;50.056;8.248;2022-07-04T00:39:29;18.90;99.90
16781;DHT22;8507;50.056;8.248;2022-07-04T00:41:55;18.80;99.90
16781;DHT22;8507;50.056;8.248;2022-07-04T00:44:20;18.90;99.90
16781;DHT22;8507;50.056;8.248;2022-07-04T00:46:46;18.90;99.90
16781;DHT22;8507;50.056;8.248;2022-07-04T00:49:14;18.90;99.90
16781;DHT22;8507;50.056;8.248;2022-07-04T00:51:41;18.70;99.90
16781;DHT22;8507;50.056;8.248;2022-07-04T00:54:09;18.80;99.90
16781;DHT22;8507;50.056;8.248;2022-07-04T00:56:40;18.80;99.90
16781;DHT22;8507;50.056;8.248;2022-07-04T00:59:06;18.70;99.90
16781;DHT22;8507;50.056;8.248;2022-07-04T01:01:33;18.60;99.90
16781;DHT22;8507;50.056;8.248;2022-07-04T01:03:59;18.60;99.90
16781;DHT22;8507;50.056;8.248;2022-07-04T01:06:26;18.40;99.90
16781;DHT22;8507;50.056;8.248;2022-07-04T01:08:51;18.40;99.90
16781;DHT22;8507;50.056;8.248;2022-07-04T01:11:17;18.40;99.90
16781;DHT22;8507;50.056;8.248;2022-07-04T01:13:43;18.40;99.90
16781;DHT22;8507;50.056;8.248;2022-07-04T01:16:09;18.50;99.90
16781;DHT22;8507;50.056;8.248;2022-07-04T01:18:35;18.40;99.90
16781;DHT22;8507;50.056;8.248;2022-07-04T01:21:02;18.50;99.90
16781;DHT22;8507;50.056;8.248;2022-07-04T01:23:27;18.50;99.90
16781;DHT22;8507;50.056;8.248;2022-07-04T01:25:53;18.40;99.90
16781;DHT22;8507;50.056;8.248;2022-07-04T01:28:20;18.30;99.90
16781;DHT22;8507;50.056;8.248;2022-07-04T01:30:46;18.20;99.90
16781;DHT22;8507;50.056;8.248;2022-07-04T01:33:11;18.30;99.90
16781;DHT22;8507;50.056;8.248;2022-07-04T01:35:37;18.40;99.90
16781;DHT22;8507;50.056;8.248;2022-07-04T01:38:03;18.30;99.90
16781;DHT22;8507;50.056;8.248;2022-07-04T01:40:28;18.30;99.90
16781;DHT22;8507;50.056;8.248;2022-07-04T01:42:54;18.30;99.90
16781;DHT22;8507;50.056;8.248;2022-07-04T01:45:20;18.30;99.90
16781;DHT22;8507;50.056;8.248;2022-07-04T01:47:45;18.30;99.90
16781;DHT22;8507;50.056;8.248;2022-07-04T01:50:11;18.40;99.90
16781;DHT22;8507;50.056;8.248;2022-07-04T01:52:40;18.40;99.90
16781;DHT22;8507;50.056;8.248;2022-07-04T01:55:08;18.40;99.90
16781;DHT22;8507;50.056;8.248;2022-07-04T01:57:33;18.30;99.90
16781;DHT22;8507;50.056;8.248;2022-07-04T01:59:59;18.30;99.90
16781;DHT22;8507;50.056;8.248;2022-07-04T02:02:43;18.40;99.90
16781;DHT22;8507;50.056;8.248;2022-07-04T02:05:09;18.50;99.90
16781;DHT22;8507;50.056;8.248;2022-07-04T02:07:34;18.40;99.90
16781;DHT22;8507;50.056;8.248;2022-07-04T02:10:00;18.40;99.90
16781;DHT22;8507;50.056;8.248;2022-07-04T02:12:25;18.50;99.90
16781;DHT22;8507;50.056;8.248;2022-07-04T02:15:09;18.60;99.90
16781;DHT22;8507;50.056;8.248;2022-07-04T02:17:35;18.70;99.90
16781;DHT22;8507;50.056;8.248;2022-07-04T02:20:01;18.70;99.90
16781;DHT22;8507;50.056;8.248;2022-07-04T02:22:27;18.70;99.90
16781;DHT22;8507;50.056;8.248;2022-07-04T02:24:52;18.70;99.90
16781;DHT22;8507;50.056;8.248;2022-07-04T02:27:18;18.70;99.90
16781;DHT22;8507;50.056;8.248;2022-07-04T02:29:43;18.70;99.90
16781;DHT22;8507;50.056;8.248;2022-07-04T02:32:09;18.70;99.90
16781;DHT22;8507;50.056;8.248;2022-07-04T02:34:35;18.80;99.90
16781;DHT22;8507;50.056;8.248;2022-07-04T02:37:00;18.60;99.90
16781;DHT22;8507;50.056;8.248;2022-07-04T02:39:26;18.60;99.90
16781;DHT22;8507;50.056;8.248;2022-07-04T02:41:51;18.60;99.90
16781;DHT22;8507;50.056;8.248;2022-07-04T02:44:17;18.50;99.90
16781;DHT22;8507;50.056;8.248;2022-07-04T02:46:43;18.50;99.90
16781;DHT22;8507;50.056;8.248;2022-07-04T02:49:08;18.60;99.90
16781;DHT22;8507;50.056;8.248;2022-07-04T02:51:34;18.60;99.90
16781;DHT22;8507;50.056;8.248;2022-07-04T02:54:00;18.60;99.90
16781;DHT22;8507;50.056;8.248;2022-07-04T02:56:26;18.50;99.90
16781;DHT22;8507;50.056;8.248;2022-07-04T02:58:52;18.50;99.90
16781;DHT22;8507;50.056;8.248;2022-07-04T03:01:18;18.50;99.90
16781;DHT22;8507;50.056;8.248;2022-07-04T03:03:45;18.50;99.90
16781;DHT22;8507;50.056;8.248;2022-07-04T03:06:11;18.50;99.90
16781;DHT22;8507;50.056;8.248;2022-07-04T03:08:36;18.40;99.90
16781;DHT22;8507;50.056;8.248;2022-07-04T03:11:03;18.40;99.90
16781;DHT22;8507;50.056;8.248;2022-07-04T03:13:28;18.30;99.90
16781;DHT22;8507;50.056;8.248;2022-07-04T03:15:54;18.20;99.90
16781;DHT22;8507;50.056;8.248;2022-07-04T03:18:20;18.20;99.90
16781;DHT22;8507;50.056;8.248;2022-07-04T03:20:46;18.10;99.90
16781;DHT22;8507;50.056;8.248;2022-07-04T03:23:12;18.10;99.90
16781;DHT22;8507;50.056;8.248;2022-07-04T03:25:37;18.10;99.90
16781;DHT22;8507;50.056;8.248;2022-07-04T03:28:03;18.10;99.90
16781;DHT22;8507;50.056;8.248;2022-07-04T03:30:29;18.10;99.90
16781;DHT22;8507;50.056;8.248;2022-07-04T03:32:54;18.10;99.90
16781;DHT22;8507;50.056;8.248;2022-07-04T03:35:20;18.10;99.90
16781;DHT22;8507;50.056;8.248;2022-07-04T03:37:46;18.00;99.90
16781;DHT22;8507;50.056;8.248;2022-07-04T03:40:12;17.90;99.90
16781;DHT22;8507;50.056;8.248;2022-07-04T03:42:37;18.00;99.90
16781;DHT22;8507;50.056;8.248;2022-07-04T03:45:06;18.80;99.90
16781;DHT22;8507;50.056;8.248;2022-07-04T03:47:32;19.30;99.90
16781;DHT22;8507;50.056;8.248;2022-07-04T03:49:58;19.80;99.90
16781;DHT22;8507;50.056;8.248;2022-07-04T03:52:24;20.00;99.90
16781;DHT22;8507;50.056;8.248;2022-07-04T03:54:50;20.30;99.90
16781;DHT22;8507;50.056;8.248;2022-07-04T03:57:15;21.00;99.90
16781;DHT22;8507;50.056;8.248;2022-07-04T03:59:41;21.60;99.90
16781;DHT22;8507;50.056;8.248;2022-07-04T04:02:06;22.40;99.90
16781;DHT22;8507;50.056;8.248;2022-07-04T04:04:32;22.60;99.90
16781;DHT22;8507;50.056;8.248;2022-07-04T04:07:16;22.80;99.90
16781;DHT22;8507;50.056;8.248;2022-07-04T04:09:41;23.30;99.90
16781;DHT22;8507;50.056;8.248;2022-07-04T04:12:07;24.10;99.90
16781;DHT22;8507;50.056;8.248;2022-07-04T04:14:33;24.00;99.90
16781;DHT22;8507;50.056;8.248;2022-07-04T04:16:58;24.90;99.90
16781;DHT22;8507;50.056;8.248;2022-07-04T04:19:24;25.30;99.90
16781;DHT22;8507;50.056;8.248;2022-07-04T04:21:50;25.80;99.90
16781;DHT22;8507;50.056;8.248;2022-07-04T04:24:15;25.70;99.90
16781;DHT22;8507;50.056;8.248;2022-07-04T04:26:41;26.10;99.90
16781;DHT22;8507;50.056;8.248;2022-07-04T04:29:06;25.90;99.90
16781;DHT22;8507;50.056;8.248;2022-07-04T04:31:32;25.00;99.90
16781;DHT22;8507;50.056;8.248;2022-07-04T04:33:57;24.30;99.90
16781;DHT22;8507;50.056;8.248;2022-07-04T04:36:23;23.70;99.90
16781;DHT22;8507;50.056;8.248;2022-07-04T04:38:49;22.90;99.90
16781;DHT22;8507;50.056;8.248;2022-07-04T04:41:15;22.40;99.90
16781;DHT22;8507;50.056;8.248;2022-07-04T04:43:42;21.80;99.90
16781;DHT22;8507;50.056;8.248;2022-07-04T04:46:07;21.40;99.90
16781;DHT22;8507;50.056;8.248;2022-07-04T04:48:33;21.20;99.90
16781;DHT22;8507;50.056;8.248;2022-07-04T04:50:59;21.20;99.90
16781;DHT22;8507;50.056;8.248;2022-07-04T04:53:24;21.20;99.90
16781;DHT22;8507;50.056;8.248;2022-07-04T04:55:52;20.90;99.90
16781;DHT22;8507;50.056;8.248;2022-07-04T04:58:19;20.90;99.90
16781;DHT22;8507;50.056;8.248;2022-07-04T05:00:44;20.70;99.90
16781;DHT22;8507;50.056;8.248;2022-07-04T05:03:11;20.00;99.90
16781;DHT22;8507;50.056;8.248;2022-07-04T05:05:37;20.00;99.90
16781;DHT22;8507;50.056;8.248;2022-07-04T05:08:02;19.70;99.90
16781;DHT22;8507;50.056;8.248;2022-07-04T05:10:28;19.80;99.90
16781;DHT22;8507;50.056;8.248;2022-07-04T05:12:53;19.80;99.90
16781;DHT22;8507;50.056;8.248;2022-07-04T05:15:20;19.70;99.90
16781;DHT22;8507;50.056;8.248;2022-07-04T05:17:46;19.70;99.90
16781;DHT22;8507;50.056;8.248;2022-07-04T05:20:11;19.30;99.90
16781;DHT22;8507;50.056;8.248;2022-07-04T05:22:37;19.30;99.90
16781;DHT22;8507;50.056;8.248;2022-07-04T05:25:03;19.50;99.90
16781;DHT22;8507;50.056;8.248;2022-07-04T05:27:28;19.60;99.90
16781;DHT22;8507;50.056;8.248;2022-07-04T05:29:56;19.60;99.90
16781;DHT22;8507;50.056;8.248;2022-07-04T05:32:22;19.70;99.90
16781;DHT22;8507;50.056;8.248;2022-07-04T05:34:47;19.50;99.90
16781;DHT22;8507;50.056;8.248;2022-07-04T05:37:13;19.50;99.90
16781;DHT22;8507;50.056;8.248;2022-07-04T05:39:38;19.50;99.90
16781;DHT22;8507;50.056;8.248;2022-07-04T05:42:04;19.70;99.90
16781;DHT22;8507;50.056;8.248;2022-07-04T05:44:30;19.70;99.90
16781;DHT22;8507;50.056;8.248;2022-07-04T05:46:55;19.80;99.90
16781;DHT22;8507;50.056;8.248;2022-07-04T05:49:21;19.90;99.90
16781;DHT22;8507;50.056;8.248;2022-07-04T05:51:46;19.90;99.90
16781;DHT22;8507;50.056;8.248;2022-07-04T05:54:12;19.80;99.90
16781;DHT22;8507;50.056;8.248;2022-07-04T05:56:38;19.90;99.90
16781;DHT22;8507;50.056;8.248;2022-07-04T05:59:05;20.10;99.90
16781;DHT22;8507;50.056;8.248;2022-07-04T06:01:30;20.00;99.90
16781;DHT22;8507;50.056;8.248;2022-07-04T06:03:56;20.30;99.90
16781;DHT22;8507;50.056;8.248;2022-07-04T06:06:21;20.30;99.90
16781;DHT22;8507;50.056;8.248;2022-07-04T06:08:47;20.30;99.90
16781;DHT22;8507;50.056;8.248;2022-07-04T06:11:12;20.50;99.90
16781;DHT22;8507;50.056;8.248;2022-07-04T06:13:39;20.70;99.90
16781;DHT22;8507;50.056;8.248;2022-07-04T06:16:05;20.90;99.90
16781;DHT22;8507;50.056;8.248;2022-07-04T06:18:31;21.00;99.90
16781;DHT22;8507;50.056;8.248;2022-07-04T06:20:56;20.90;99.90
16781;DHT22;8507;50.056;8.248;2022-07-04T06:23:22;20.60;99.90
16781;DHT22;8507;50.056;8.248;2022-07-04T06:25:47;20.70;99.90
16781;DHT22;8507;50.056;8.248;2022-07-04T06:28:13;20.90;99.90
16781;DHT22;8507;50.056;8.248;2022-07-04T06:30:38;20.80;99.90
16781;DHT22;8507;50.056;8.248;2022-07-04T06:33:04;20.80;99.90
16781;DHT22;8507;50.056;8.248;2022-07-04T06:35:31;21.00;99.90
16781;DHT22;8507;50.056;8.248;2022-07-04T06:38:19;21.10;99.90
16781;DHT22;8507;50.056;8.248;2022-07-04T06:40:45;21.10;99.90
16781;DHT22;8507;50.056;8.248;2022-07-04T06:43:11;21.00;99.90
16781;DHT22;8507;50.056;8.248;2022-07-04T06:45:37;21.00;99.90
16781;DHT22;8507;50.056;8.248;2022-07-04T06:48:04;21.30;99.90
16781;DHT22;8507;50.056;8.248;2022-07-04T06:50:30;21.50;99.90
16781;DHT22;8507;50.056;8.248;2022-07-04T06:53:00;21.10;99.90
16781;DHT22;8507;50.056;8.248;2022-07-04T06:55:26;21.30;99.90
16781;DHT22;8507;50.056;8.248;2022-07-04T06:57:52;21.20;99.90
16781;DHT22;8507;50.056;8.248;2022-07-04T07:00:17;20.90;99.90
16781;DHT22;8507;50.056;8.248;2022-07-04T07:02:43;21.00;99.90
16781;DHT22;8507;50.056;8.248;2022-07-04T07:05:09;21.20;99.90
16781;DHT22;8507;50.056;8.248;2022-07-04T07:07:34;21.50;99.90
16781;DHT22;8507;50.056;8.248;2022-07-04T07:10:00;21.80;99.90
16781;DHT22;8507;50.056;8.248;2022-07-04T07:12:28;22.00;99.90
16781;DHT22;8507;50.056;8.248;2022-07-04T07:14:54;21.80;99.90
16781;DHT22;8507;50.056;8.248;2022-07-04T07:17:20;22.10;99.90
16781;DHT22;8507;50.056;8.248;2022-07-04T07:19:46;22.30;99.90
16781;DHT22;8507;50.056;8.248;2022-07-04T07:22:13;22.40;99.90
16781;DHT22;8507;50.056;8.248;2022-07-04T07:24:39;21.80;99.90
16781;DHT22;8507;50.056;8.248;2022-07-04T07:27:04;21.70;99.90
16781;DHT22;8507;50.056;8.248;2022-07-04T07:29:30;21.90;99.90
16781;DHT22;8507;50.056;8.248;2022-07-04T07:31:56;22.10;99.90
16781;DHT22;8507;50.056;8.248;2022-07-04T07:34:21;22.00;99.90
16781;DHT22;8507;50.056;8.248;2022-07-04T07:36:47;21.90;99.90
16781;DHT22;8507;50.056;8.248;2022-07-04T07:39:13;22.30;99.90
16781;DHT22;8507;50.056;8.248;2022-07-04T07:41:38;21.80;99.90
16781;DHT22;8507;50.056;8.248;2022-07-04T07:44:04;22.10;99.90
16781;DHT22;8507;50.056;8.248;2022-07-04T07:46:30;22.20;99.90
16781;DHT22;8507;50.056;8.248;2022-07-04T07:48:56;22.10;99.90
16781;DHT22;8507;50.056;8.248;2022-07-04T07:51:21;22.30;99.90
16781;DHT22;8507;50.056;8.248;2022-07-04T07:53:47;22.50;99.90
16781;DHT22;8507;50.056;8.248;2022-07-04T07:56:13;22.30;99.90
16781;DHT22;8507;50.056;8.248;2022-07-04T07:58:38;22.10;99.90
16781;DHT22;8507;50.056;8.248;2022-07-04T08:01:04;22.60;99.90
16781;DHT22;8507;50.056;8.248;2022-07-04T08:03:30;22.30;99.90
16781;DHT22;8507;50.056;8.248;2022-07-04T08:06:15;22.30;99.90
16781;DHT22;8507;50.056;8.248;2022-07-04T08:08:41;22.80;99.90
16781;DHT22;8507;50.056;8.248;2022-07-04T08:11:07;23.10;99.90
16781;DHT22;8507;50.056;8.248;2022-07-04T08:13:33;23.30;99.90
16781;DHT22;8507;50.056;8.248;2022-07-04T08:15:59;23.40;99.90
16781;DHT22;8507;50.056;8.248;2022-07-04T08:18:25;22.80;99.90
16781;DHT22;8507;50.056;8.248;2022-07-04T08:20:50;23.00;99.90
16781;DHT22;8507;50.056;8.248;2022-07-04T08:23:16;22.80;99.90
16781;DHT22;8507;50.056;8.248;2022-07-04T08:25:42;22.80;99.90
16781;DHT22;8507;50.056;8.248;2022-07-04T08:28:07;22.40;99.90
16781;DHT22;8507;50.056;8.248;2022-07-04T08:30:33;22.70;99.90
16781;DHT22;8507;50.056;8.248;2022-07-04T08:32:59;23.00;99.90
16781;DHT22;8507;50.056;8.248;2022-07-04T08:35:24;23.40;99.90
16781;DHT22;8507;50.056;8.248;2022-07-04T08:37:50;23.60;99.90
16781;DHT22;8507;50.056;8.248;2022-07-04T08:40:23;23.50;99.90
16781;DHT22;8507;50.056;8.248;2022-07-04T08:42:49;23.10;99.90
16781;DHT22;8507;50.056;8.248;2022-07-04T08:45:16;23.40;99.90
16781;DHT22;8507;50.056;8.248;2022-07-04T08:47:43;23.40;99.90
16781;DHT22;8507;50.056;8.248;2022-07-04T08:50:12;23.40;99.90
16781;DHT22;8507;50.056;8.248;2022-07-04T08:52:38;23.90;99.90
16781;DHT22;8507;50.056;8.248;2022-07-04T08:55:07;24.30;99.90
16781;DHT22;8507;50.056;8.248;2022-07-04T08:57:52;23.80;99.90
16781;DHT22;8507;50.056;8.248;2022-07-04T09:00:37;23.80;99.90
16781;DHT22;8507;50.056;8.248;2022-07-04T09:03:03;23.50;99.90
16781;DHT22;8507;50.056;8.248;2022-07-04T09:05:30;23.50;99.90
16781;DHT22;8507;50.056;8.248;2022-07-04T09:07:58;24.20;99.90
16781;DHT22;8507;50.056;8.248;2022-07-04T09:10:23;24.20;99.90
16781;DHT22;8507;50.056;8.248;2022-07-04T09:12:49;24.60;99.90
16781;DHT22;8507;50.056;8.248;2022-07-04T09:15:16;24.70;99.90
16781;DHT22;8507;50.056;8.248;2022-07-04T09:17:42;24.60;99.90
16781;DHT22;8507;50.056;8.248;2022-07-04T09:20:19;24.70;99.90
16781;DHT22;8507;50.056;8.248;2022-07-04T09:22:46;25.10;99.90
16781;DHT22;8507;50.056;8.248;2022-07-04T09:25:12;25.40;99.90
16781;DHT22;8507;50.056;8.248;2022-07-04T09:27:46;25.50;99.90
16781;DHT22;8507;50.056;8.248;2022-07-04T09:30:16;25.70;99.90
16781;DHT22;8507;50.056;8.248;2022-07-04T09:32:51;25.50;99.90
16781;DHT22;8507;50.056;8.248;2022-07-04T09:35:23;25.60;99.90
16781;DHT22;8507;50.056;8.248;2022-07-04T09:37:54;25.30;99.90
16781;DHT22;8507;50.056;8.248;2022-07-04T09:40:23;25.60;99.90
16781;DHT22;8507;50.056;8.248;2022-07-04T09:42:48;25.60;99.90
16781;DHT22;8507;50.056;8.248;2022-07-04T09:45:14;25.80;99.90
16781;DHT22;8507;50.056;8.248;2022-07-04T09:47:41;25.90;99.90
16781;DHT22;8507;50.056;8.248;2022-07-04T09:50:10;25.90;99.90
16781;DHT22;8507;50.056;8.248;2022-07-04T09:55:11;26.30;99.90
16781;DHT22;8507;50.056;8.248;2022-07-04T09:57:37;26.30;99.90
16781;DHT22;8507;50.056;8.248;2022-07-04T10:02:49;26.40;99.90
16781;DHT22;8507;50.056;8.248;2022-07-04T10:05:26;25.70;99.90
16781;DHT22;8507;50.056;8.248;2022-07-04T10:07:54;25.50;99.90
16781;DHT22;8507;50.056;8.248;2022-07-04T10:10:22;26.00;99.90
16781;DHT22;8507;50.056;8.248;2022-07-04T10:13:11;26.30;99.90
16781;DHT22;8507;50.056;8.248;2022-07-04T10:15:39;25.90;99.90
16781;DHT22;8507;50.056;8.248;2022-07-04T10:18:06;26.20;99.90
16781;DHT22;8507;50.056;8.248;2022-07-04T10:20:31;26.40;99.90
16781;DHT22;8507;50.056;8.248;2022-07-04T10:22:58;26.30;99.90
16781;DHT22;8507;50.056;8.248;2022-07-04T10:25:24;25.90;99.90
16781;DHT22;8507;50.056;8.248;2022-07-04T10:27:50;26.10;99.90
16781;DHT22;8507;50.056;8.248;2022-07-04T10:30:24;26.00;99.90
16781;DHT22;8507;50.056;8.248;2022-07-04T10:32:51;26.30;99.90
16781;DHT22;8507;50.056;8.248;2022-07-04T10:35:17;26.70;99.90
16781;DHT22;8507;50.056;8.248;2022-07-04T10:38:05;27.10;99.90
16781;DHT22;8507;50.056;8.248;2022-07-04T10:40:47;27.10;99.90
16781;DHT22;8507;50.056;8.248;2022-07-04T10:51:42;27.30;99.90
16781;DHT22;8507;50.056;8.248;2022-07-04T10:59:19;27.90;99.90
16781;DHT22;8507;50.056;8.248;2022-07-04T11:01:53;28.00;99.90
16781;DHT22;8507;50.056;8.248;2022-07-04T11:05:00;28.00;99.90
16781;DHT22;8507;50.056;8.248;2022-07-04T11:17:51;28.30;99.90
16781;DHT22;8507;50.056;8.248;2022-07-04T11:20:20;28.20;99.90
16781;DHT22;8507;50.056;8.248;2022-07-04T11:22:46;28.40;99.90
16781;DHT22;8507;50.056;8.248;2022-07-04T11:25:12;28.10;99.90
16781;DHT22;8507;50.056;8.248;2022-07-04T11:27:38;28.20;99.90
16781;DHT22;8507;50.056;8.248;2022-07-04T11:30:04;28.50;99.90
16781;DHT22;8507;50.056;8.248;2022-07-04T11:32:32;28.50;99.90
16781;DHT22;8507;50.056;8.248;2022-07-04T11:34:58;28.60;99.90
16781;DHT22;8507;50.056;8.248;2022-07-04T11:37:23;28.70;99.90
16781;DHT22;8507;50.056;8.248;2022-07-04T11:39:53;28.10;99.90
16781;DHT22;8507;50.056;8.248;2022-07-04T11:43:05;28.50;99.90
16781;DHT22;8507;50.056;8.248;2022-07-04T11:45:49;28.60;99.90
16781;DHT22;8507;50.056;8.248;2022-07-04T11:48:25;28.70;99.90
16781;DHT22;8507;50.056;8.248;2022-07-04T11:50:51;28.70;99.90
16781;DHT22;8507;50.056;8.248;2022-07-04T11:53:17;28.80;99.90
16781;DHT22;8507;50.056;8.248;2022-07-04T11:55:57;28.60;99.90
16781;DHT22;8507;50.056;8.248;2022-07-04T11:58:24;28.40;99.90
16781;DHT22;8507;50.056;8.248;2022-07-04T12:00:49;27.70;99.90
16781;DHT22;8507;50.056;8.248;2022-07-04T12:03:15;27.60;99.90
16781;DHT22;8507;50.056;8.248;2022-07-04T12:05:41;27.80;99.90
16781;DHT22;8507;50.056;8.248;2022-07-04T12:08:09;27.70;99.90
16781;DHT22;8507;50.056;8.248;2022-07-04T12:10:35;28.00;99.90
16781;DHT22;8507;50.056;8.248;2022-07-04T12:13:06;28.20;99.90
16781;DHT22;8507;50.056;8.248;2022-07-04T12:18:03;28.80;99.90
16781;DHT22;8507;50.056;8.248;2022-07-04T12:20:31;28.60;99.90
16781;DHT22;8507;50.056;8.248;2022-07-04T12:22:59;28.10;99.90
16781;DHT22;8507;50.056;8.248;2022-07-04T12:25:33;28.10;99.90
16781;DHT22;8507;50.056;8.248;2022-07-04T12:28:08;28.40;99.90
16781;DHT22;8507;50.056;8.248;2022-07-04T12:30:58;28.30;99.90
16781;DHT22;8507;50.056;8.248;2022-07-04T12:33:25;27.70;99.90
16781;DHT22;8507;50.056;8.248;2022-07-04T12:36:02;27.30;99.90
16781;DHT22;8507;50.056;8.248;2022-07-04T12:43:43;27.40;99.90
16781;DHT22;8507;50.056;8.248;2022-07-04T12:46:15;27.70;99.90
16781;DHT22;8507;50.056;8.248;2022-07-04T12:48:52;27.30;99.90
16781;DHT22;8507;50.056;8.248;2022-07-04T12:51:25;27.60;99.90
16781;DHT22;8507;50.056;8.248;2022-07-04T12:53:53;27.90;99.90
16781;DHT22;8507;50.056;8.248;2022-07-04T12:59:05;28.00;99.90
16781;DHT22;8507;50.056;8.248;2022-07-04T13:01:31;28.30;99.90
16781;DHT22;8507;50.056;8.248;2022-07-04T13:03:57;28.10;99.90
16781;DHT22;8507;50.056;8.248;2022-07-04T13:06:24;27.80;99.90
16781;DHT22;8507;50.056;8.248;2022-07-04T13:08:50;27.60;99.90
16781;DHT22;8507;50.056;8.248;2022-07-04T13:11:15;27.80;99.90
16781;DHT22;8507;50.056;8.248;2022-07-04T13:13:59;27.80;99.90
16781;DHT22;8507;50.056;8.248;2022-07-04T13:16:25;28.20;99.90
16781;DHT22;8507;50.056;8.248;2022-07-04T13:18:50;28.60;99.90
16781;DHT22;8507;50.056;8.248;2022-07-04T13:21:16;28.70;99.90
16781;DHT22;8507;50.056;8.248;2022-07-04T13:23:42;28.40;99.90
16781;DHT22;8507;50.056;8.248;2022-07-04T13:26:07;28.60;99.90
16781;DHT22;8507;50.056;8.248;2022-07-04T13:28:33;28.70;99.90
16781;DHT22;8507;50.056;8.248;2022-07-04T13:30:59;28.90;99.90
16781;DHT22;8507;50.056;8.248;2022-07-04T13:33:24;28.60;99.90
16781;DHT22;8507;50.056;8.248;2022-07-04T13:35:50;28.00;99.90
16781;DHT22;8507;50.056;8.248;2022-07-04T13:38:15;26.90;99.90
16781;DHT22;8507;50.056;8.248;2022-07-04T13:40:44;27.00;99.90
16781;DHT22;8507;50.056;8.248;2022-07-04T13:43:10;27.20;99.90
16781;DHT22;8507;50.056;8.248;2022-07-04T13:45:37;27.80;99.90
16781;DHT22;8507;50.056;8.248;2022-07-04T13:48:05;28.30;99.90
16781;DHT22;8507;50.056;8.248;2022-07-04T13:50:30;28.10;99.90
16781;DHT22;8507;50.056;8.248;2022-07-04T13:52:56;27.50;99.90
16781;DHT22;8507;50.056;8.248;2022-07-04T13:55:22;27.60;99.90
16781;DHT22;8507;50.056;8.248;2022-07-04T13:57:48;27.90;99.90
16781;DHT22;8507;50.056;8.248;2022-07-04T14:00:14;28.00;99.90
16781;DHT22;8507;50.056;8.248;2022-07-04T14:02:39;28.20;99.90
16781;DHT22;8507;50.056;8.248;2022-07-04T14:05:05;28.40;99.90
16781;DHT22;8507;50.056;8.248;2022-07-04T14:07:31;28.50;99.90
16781;DHT22;8507;50.056;8.248;2022-07-04T14:09:59;28.40;99.90
16781;DHT22;8507;50.056;8.248;2022-07-04T14:12:24;28.60;99.90
16781;DHT22;8507;50.056;8.248;2022-07-04T14:14:50;28.80;99.90
16781;DHT22;8507;50.056;8.248;2022-07-04T14:17:16;28.80;99.90
16781;DHT22;8507;50.056;8.248;2022-07-04T14:19:41;28.80;99.90
16781;DHT22;8507;50.056;8.248;2022-07-04T14:22:07;28.60;99.90
16781;DHT22;8507;50.056;8.248;2022-07-04T14:24:32;28.80;99.90
16781;DHT22;8507;50.056;8.248;2022-07-04T14:26:58;28.80;99.90
16781;DHT22;8507;50.056;8.248;2022-07-04T14:29:23;28.70;99.90
16781;DHT22;8507;50.056;8.248;2022-07-04T14:31:49;28.60;99.90
16781;DHT22;8507;50.056;8.248;2022-07-04T14:34:17;28.20;99.90
16781;DHT22;8507;50.056;8.248;2022-07-04T14:36:42;28.50;99.90
16781;DHT22;8507;50.056;8.248;2022-07-04T14:39:08;28.60;99.90
16781;DHT22;8507;50.056;8.248;2022-07-04T14:41:33;28.70;99.90
16781;DHT22;8507;50.056;8.248;2022-07-04T14:43:59;28.80;99.90
16781;DHT22;8507;50.056;8.248;2022-07-04T14:46:26;28.00;99.90
16781;DHT22;8507;50.056;8.248;2022-07-04T14:48:51;28.20;99.90
16781;DHT22;8507;50.056;8.248;2022-07-04T14:51:17;27.90;99.90
16781;DHT22;8507;50.056;8.248;2022-07-04T14:53:43;27.70;99.90
16781;DHT22;8507;50.056;8.248;2022-07-04T14:56:08;28.00;99.90
16781;DHT22;8507;50.056;8.248;2022-07-04T14:58:34;28.50;99.90
16781;DHT22;8507;50.056;8.248;2022-07-04T15:01:00;28.60;99.90
16781;DHT22;8507;50.056;8.248;2022-07-04T15:03:25;28.60;99.90
16781;DHT22;8507;50.056;8.248;2022-07-04T15:05:51;28.90;99.90
16781;DHT22;8507;50.056;8.248;2022-07-04T15:08:16;28.60;99.90
16781;DHT22;8507;50.056;8.248;2022-07-04T15:10:42;28.30;99.90
16781;DHT22;8507;50.056;8.248;2022-07-04T15:13:08;27.80;99.90
16781;DHT22;8507;50.056;8.248;2022-07-04T15:15:34;27.60;99.90
16781;DHT22;8507;50.056;8.248;2022-07-04T15:18:00;28.10;99.90
16781;DHT22;8507;50.056;8.248;2022-07-04T15:20:26;28.10;99.90
16781;DHT22;8507;50.056;8.248;2022-07-04T15:23:09;27.90;99.90
16781;DHT22;8507;50.056;8.248;2022-07-04T15:25:54;27.80;99.90
16781;DHT22;8507;50.056;8.248;2022-07-04T15:28:19;27.70;99.90
16781;DHT22;8507;50.056;8.248;2022-07-04T15:30:45;27.70;99.90
16781;DHT22;8507;50.056;8.248;2022-07-04T15:33:10;27.20;99.90
16781;DHT22;8507;50.056;8.248;2022-07-04T15:35:44;27.00;99.90
16781;DHT22;8507;50.056;8.248;2022-07-04T15:38:10;27.20;99.90
16781;DHT22;8507;50.056;8.248;2022-07-04T15:40:36;27.30;99.90
16781;DHT22;8507;50.056;8.248;2022-07-04T15:43:02;26.70;99.90
16781;DHT22;8507;50.056;8.248;2022-07-04T15:45:27;26.90;99.90
16781;DHT22;8507;50.056;8.248;2022-07-04T15:47:53;27.00;99.90
16781;DHT22;8507;50.056;8.248;2022-07-04T15:50:18;26.60;99.90
16781;DHT22;8507;50.056;8.248;2022-07-04T15:52:44;27.00;99.90
16781;DHT22;8507;50.056;8.248;2022-07-04T15:55:09;27.50;99.90
16781;DHT22;8507;50.056;8.248;2022-07-04T15:57:35;27.40;99.90
16781;DHT22;8507;50.056;8.248;2022-07-04T16:00:03;27.60;99.90
16781;DHT22;8507;50.056;8.248;2022-07-04T16:02:29;27.70;99.90
16781;DHT22;8507;50.056;8.248;2022-07-04T16:04:54;27.20;99.90
16781;DHT22;8507;50.056;8.248;2022-07-04T16:07:20;27.20;99.90
16781;DHT22;8507;50.056;8.248;2022-07-04T16:09:45;27.40;99.90
16781;DHT22;8507;50.056;8.248;2022-07-04T16:12:11;27.90;99.90
16781;DHT22;8507;50.056;8.248;2022-07-04T16:14:37;28.20;99.90
16781;DHT22;8507;50.056;8.248;2022-07-04T16:17:03;28.00;99.90
16781;DHT22;8507;50.056;8.248;2022-07-04T16:19:28;28.00;99.90
16781;DHT22;8507;50.056;8.248;2022-07-04T16:21:54;27.90;99.90
16781;DHT22;8507;50.056;8.248;2022-07-04T16:24:20;28.00;99.90